createdAt,value
2018-12-20T00:02:17.769Z,95.33
2018-12-20T00:04:44.262Z,94.75
2018-12-20T00:07:10.422Z,95.09
2018-12-20T00:09:36.427Z,95.82
2018-12-20T00:12:02.462Z,95.83
2018-12-20T00:14:30.120Z,96.14
2018-12-20T00:17:02.428Z,96.07
2018-12-20T00:19:28.398Z,95.78
2018-12-20T00:21:54.334Z,96.13
2018-12-20T00:24:20.308Z,95.58
2018-12-20T00:26:46.351Z,95.92
2018-12-20T00:29:12.352Z,95.83
2018-12-20T00:31:38.339Z,96.17
2018-12-20T00:34:04.271Z,96.36
2018-12-20T00:36:30.196Z,96.26
2018-12-20T00:38:56.353Z,95.61
2018-12-20T00:41:22.387Z,95.34
2018-12-20T00:43:48.390Z,95.17
2018-12-20T00:46:14.461Z,95.38
2018-12-20T00:48:40.390Z,95.55
2018-12-20T00:51:06.422Z,96.23
2018-12-20T00:53:32.958Z,96.53
2018-12-20T00:55:59.147Z,97.37
2018-12-20T00:58:25.135Z,97.98
2018-12-20T01:00:51.382Z,98.79
2018-12-20T01:03:17.515Z,98.71
2018-12-20T01:05:43.501Z,98.83
2018-12-20T01:08:09.497Z,98.98
2018-12-20T01:10:35.509Z,99.09
2018-12-20T01:13:01.531Z,98.83
2018-12-20T01:15:31.368Z,98.24
2018-12-20T01:17:57.274Z,98.73
2018-12-20T01:20:24.969Z,98.77
2018-12-20T01:22:50.949Z,98.52
2018-12-20T01:25:20.711Z,98.84
2018-12-20T01:27:46.647Z,99.27
2018-12-20T01:30:14.391Z,99.69
2018-12-20T01:32:40.341Z,99.74
2018-12-20T01:35:10.215Z,99.19
2018-12-20T01:37:36.122Z,98.65
2018-12-20T01:40:02.656Z,98.46
2018-12-20T01:42:28.617Z,98.91
2018-12-20T01:44:54.722Z,97.82
2018-12-20T01:47:20.770Z,97.96
2018-12-20T01:49:46.778Z,97.98
2018-12-20T01:52:16.974Z,98.75
2018-12-20T01:54:42.855Z,98.91
2018-12-20T01:57:10.273Z,98.58
2018-12-20T01:59:36.165Z,98.12
2018-12-20T02:02:05.960Z,98.78
2018-12-20T02:04:31.875Z,99.13
2018-12-20T02:06:59.944Z,98.87
2018-12-20T02:09:25.943Z,98.58
2018-12-20T02:11:53.785Z,98.60
2018-12-20T02:14:19.763Z,98.58
2018-12-20T02:16:45.929Z,99.32
2018-12-20T02:19:11.971Z,98.99
2018-12-20T02:21:38.027Z,98.55
2018-12-20T02:24:07.467Z,98.70
2018-12-20T02:26:33.336Z,98.17
2018-12-20T02:29:00.270Z,97.65
2018-12-20T02:31:26.449Z,98.37
2018-12-20T02:33:55.932Z,99.05
2018-12-20T02:36:22.031Z,99.64
2018-12-20T02:38:49.605Z,99.89
2018-12-20T02:41:15.659Z,99.78
2018-12-20T02:43:44.482Z,100.00
2018-12-20T02:46:10.523Z,99.91
2018-12-20T02:48:39.568Z,99.71
2018-12-20T02:51:05.688Z,99.04
2018-12-20T02:53:31.739Z,99.41
2018-12-20T02:55:57.918Z,99.35
2018-12-20T02:58:24.408Z,99.18
2018-12-20T03:00:51.814Z,98.48
2018-12-20T03:03:17.877Z,97.95
2018-12-20T03:05:47.362Z,97.81
2018-12-20T03:08:13.462Z,97.44
2018-12-20T03:10:41.208Z,96.45
2018-12-20T03:13:07.928Z,96.79
2018-12-20T03:15:35.746Z,96.47
2018-12-20T03:18:01.933Z,96.11
2018-12-20T03:20:29.735Z,96.18
2018-12-20T03:22:55.655Z,96.04
2018-12-20T03:25:24.355Z,96.13
2018-12-20T03:27:50.413Z,97.14
2018-12-20T03:30:16.532Z,97.35
2018-12-20T03:32:42.931Z,97.43
2018-12-20T03:35:09.083Z,97.80
2018-12-20T03:37:36.347Z,97.37
2018-12-20T03:40:04.501Z,97.46
2018-12-20T03:42:31.250Z,97.54
2018-12-20T03:44:57.211Z,96.64
2018-12-20T03:47:26.084Z,96.54
2018-12-20T03:49:52.108Z,96.22
2018-12-20T03:52:21.503Z,96.07
2018-12-20T03:54:47.577Z,96.52
2018-12-20T03:57:15.268Z,95.89
2018-12-20T03:59:41.251Z,95.73
2018-12-20T04:02:10.959Z,95.79
2018-12-20T04:04:37.127Z,95.12
2018-12-20T04:07:03.175Z,95.26
2018-12-20T04:09:29.362Z,95.08
2018-12-20T04:11:55.454Z,95.01
2018-12-20T04:14:21.403Z,94.87
2018-12-20T04:16:47.447Z,94.39
2018-12-20T04:19:16.400Z,94.79
2018-12-20T04:21:42.341Z,94.78
2018-12-20T04:24:11.999Z,94.68
2018-12-20T04:26:38.224Z,94.32
2018-12-20T04:29:05.847Z,95.02
2018-12-20T04:31:31.788Z,95.37
2018-12-20T04:34:01.876Z,94.98
2018-12-20T04:36:28.254Z,94.61
2018-12-20T04:38:55.846Z,94.68
2018-12-20T04:41:21.976Z,94.33
2018-12-20T04:43:48.081Z,94.95
2018-12-20T04:46:14.087Z,94.82
2018-12-20T04:48:40.052Z,94.72
2018-12-20T04:51:07.558Z,94.51
2018-12-20T04:53:33.497Z,95.09
2018-12-20T04:56:03.393Z,95.29
2018-12-20T04:58:29.430Z,94.83
2018-12-20T05:00:57.129Z,95.35
2018-12-20T05:03:23.124Z,94.62
2018-12-20T05:05:52.794Z,94.95
2018-12-20T05:08:18.847Z,95.07
2018-12-20T05:10:46.273Z,95.19
2018-12-20T05:13:12.269Z,95.21
2018-12-20T05:15:41.503Z,95.76
2018-12-20T05:18:07.506Z,95.89
2018-12-20T05:20:33.637Z,96.02
2018-12-20T05:23:00.004Z,96.52
2018-12-20T05:25:26.077Z,95.81
2018-12-20T05:27:52.317Z,96.56
2018-12-20T05:30:18.457Z,96.39
2018-12-20T05:32:48.048Z,96.88
2018-12-20T05:35:14.029Z,97.83
2018-12-20T05:37:41.669Z,98.55
2018-12-20T05:40:07.875Z,99.18
2018-12-20T05:42:37.175Z,99.20
2018-12-20T05:45:03.595Z,99.38
2018-12-20T05:47:30.990Z,100.00
2018-12-20T05:49:57.119Z,99.27
2018-12-20T05:52:26.491Z,100.00
2018-12-20T05:54:52.365Z,99.78
2018-12-20T05:57:18.289Z,100.00
2018-12-20T05:59:44.295Z,99.79
2018-12-20T06:02:10.287Z,99.60
2018-12-20T06:04:37.710Z,99.32
2018-12-20T06:07:03.746Z,99.34
2018-12-20T06:09:33.179Z,99.26
2018-12-20T06:11:59.088Z,99.55
2018-12-20T06:14:27.024Z,99.50
2018-12-20T06:16:53.039Z,99.58
2018-12-20T06:19:22.396Z,99.73
2018-12-20T06:21:48.532Z,99.32
2018-12-20T06:24:16.157Z,99.91
2018-12-20T06:26:42.082Z,99.31
2018-12-20T06:29:10.813Z,99.47
2018-12-20T06:31:36.681Z,98.82
2018-12-20T06:34:09.708Z,99.01
2018-12-20T06:36:35.577Z,99.22
2018-12-20T06:39:01.509Z,98.98
2018-12-20T06:41:27.527Z,99.07
2018-12-20T06:43:53.417Z,99.57
2018-12-20T06:46:21.331Z,99.27
2018-12-20T06:48:47.163Z,99.28
2018-12-20T06:51:13.399Z,99.48
2018-12-20T06:53:39.275Z,99.39
2018-12-20T06:56:06.867Z,99.68
2018-12-20T06:58:32.921Z,99.81
2018-12-20T07:01:02.520Z,99.09
2018-12-20T07:03:28.428Z,99.39
2018-12-20T07:05:58.147Z,99.63
2018-12-20T07:08:24.033Z,99.81
2018-12-20T07:10:49.906Z,99.25
2018-12-20T07:13:16.262Z,100.00
2018-12-20T07:15:42.184Z,99.57
2018-12-20T07:18:08.049Z,99.08
2018-12-20T07:20:33.968Z,99.35
2018-12-20T07:23:02.877Z,98.94
2018-12-20T07:25:28.757Z,99.08
2018-12-20T07:27:58.113Z,99.07
2018-12-20T07:30:24.044Z,99.62
2018-12-20T07:32:53.196Z,99.40
2018-12-20T07:35:19.065Z,99.18
2018-12-20T07:37:48.006Z,99.19
2018-12-20T07:40:13.864Z,99.08
2018-12-20T07:42:41.667Z,99.54
2018-12-20T07:45:07.648Z,99.45
2018-12-20T07:47:33.519Z,99.27
2018-12-20T07:49:59.401Z,98.65
2018-12-20T07:52:25.251Z,98.76
2018-12-20T07:54:59.945Z,97.70
2018-12-20T07:57:25.788Z,97.93
2018-12-20T07:59:51.686Z,97.41
2018-12-20T08:02:17.588Z,96.97
2018-12-20T08:04:43.486Z,97.36
2018-12-20T08:07:09.394Z,97.04
2018-12-20T08:09:39.099Z,97.19
2018-12-20T08:12:04.946Z,95.45
2018-12-20T08:14:32.548Z,95.45
2018-12-20T08:16:58.443Z,94.60
2018-12-20T08:19:27.195Z,93.27
2018-12-20T08:21:53.120Z,93.04
2018-12-20T08:24:19.001Z,92.76
2018-12-20T08:26:44.902Z,92.42
2018-12-20T08:29:11.030Z,92.42
2018-12-20T08:31:38.969Z,92.64
2018-12-20T08:34:04.880Z,93.51
2018-12-20T08:36:34.122Z,92.96
2018-12-20T08:39:00.180Z,92.56
2018-12-20T08:41:29.509Z,91.34
2018-12-20T08:43:55.371Z,90.54
2018-12-20T08:46:23.247Z,90.12
2018-12-20T08:48:49.115Z,89.43
2018-12-20T08:51:17.488Z,89.48
2018-12-20T08:53:43.362Z,87.94
2018-12-20T08:56:12.212Z,87.88
2018-12-20T08:58:38.135Z,88.14
2018-12-20T09:01:04.009Z,88.82
2018-12-20T09:03:29.900Z,88.16
2018-12-20T09:05:55.904Z,88.38
2018-12-20T09:08:25.473Z,87.00
2018-12-20T09:10:51.570Z,85.01
2018-12-20T09:13:18.880Z,84.22
2018-12-20T09:15:44.797Z,84.44
2018-12-20T09:18:14.513Z,85.38
2018-12-20T09:20:40.353Z,85.53
2018-12-20T09:23:09.361Z,86.02
2018-12-20T09:25:36.614Z,85.75
2018-12-20T09:28:02.640Z,86.25
2018-12-20T09:30:30.560Z,86.13
2018-12-20T09:32:58.126Z,84.95
2018-12-20T09:35:24.005Z,84.69
2018-12-20T09:37:49.889Z,84.52
2018-12-20T09:40:15.766Z,82.87
2018-12-20T09:42:41.662Z,82.82
2018-12-20T09:45:10.997Z,80.84
2018-12-20T09:47:43.255Z,80.92
2018-12-20T09:50:09.163Z,81.97
2018-12-20T09:52:35.033Z,81.20
2018-12-20T09:55:00.990Z,81.34
2018-12-20T09:57:26.895Z,82.29
2018-12-20T09:59:53.963Z,84.21
2018-12-20T10:02:19.970Z,85.04
2018-12-20T10:04:49.778Z,85.29
2018-12-20T10:07:15.711Z,86.18
2018-12-20T10:09:43.587Z,86.41
2018-12-20T10:12:09.453Z,86.58
2018-12-20T10:14:35.378Z,87.56
2018-12-20T10:17:01.238Z,87.43
2018-12-20T10:19:27.132Z,87.17
2018-12-20T10:21:54.596Z,88.03
2018-12-20T10:24:22.296Z,87.03
2018-12-20T10:26:50.198Z,88.30
2018-12-20T10:29:16.102Z,87.96
2018-12-20T10:31:43.966Z,88.03
2018-12-20T10:34:09.866Z,88.69
2018-12-20T10:36:38.940Z,89.99
2018-12-20T10:39:05.572Z,89.24
2018-12-20T10:41:34.919Z,89.74
2018-12-20T10:44:00.788Z,89.92
2018-12-20T10:46:29.687Z,89.79
2018-12-20T10:48:55.592Z,89.95
2018-12-20T10:51:21.515Z,89.69
2018-12-20T10:53:47.520Z,89.61
2018-12-20T10:56:13.544Z,89.75
2018-12-20T10:58:40.348Z,89.19
2018-12-20T11:01:12.517Z,89.66
2018-12-20T11:03:45.279Z,89.06
2018-12-20T11:06:17.358Z,89.14
2018-12-20T11:08:45.294Z,89.36
2018-12-20T11:11:13.198Z,90.00
2018-12-20T11:13:39.149Z,89.54
2018-12-20T11:16:05.047Z,89.33
2018-12-20T11:18:30.943Z,89.45
2018-12-20T11:20:56.816Z,89.01
2018-12-20T11:23:22.694Z,88.78
2018-12-20T11:25:48.635Z,88.30
2018-12-20T11:28:14.495Z,87.65
2018-12-20T11:30:40.382Z,87.94
2018-12-20T11:33:06.235Z,87.64
2018-12-20T11:35:32.118Z,87.35
2018-12-20T11:37:58.159Z,86.86
2018-12-20T11:40:24.833Z,87.06
2018-12-20T11:42:50.720Z,87.57
2018-12-20T11:45:16.649Z,87.35
2018-12-20T11:47:46.076Z,86.37
2018-12-20T11:50:10.451Z,86.34
2018-12-20T11:52:42.327Z,86.40
2018-12-20T11:55:04.272Z,85.96
2018-12-20T11:57:30.160Z,86.27
2018-12-20T11:59:59.513Z,85.75
2018-12-20T12:02:25.396Z,86.48
2018-12-20T12:04:51.271Z,86.40
2018-12-20T12:07:17.169Z,86.09
2018-12-20T12:09:43.089Z,86.94
2018-12-20T12:12:12.470Z,87.42
2018-12-20T12:14:38.327Z,87.72
2018-12-20T12:17:05.894Z,88.37
2018-12-20T12:19:32.863Z,89.02
2018-12-20T12:22:00.131Z,89.62
2018-12-20T12:24:26.013Z,90.17
2018-12-20T12:26:55.704Z,90.86
2018-12-20T12:29:21.564Z,90.52
2018-12-20T12:31:50.667Z,90.88
2018-12-20T12:34:16.509Z,92.24
2018-12-20T12:36:45.626Z,90.22
2018-12-20T12:39:11.531Z,91.19
2018-12-20T12:41:37.371Z,90.29
2018-12-20T12:44:03.510Z,89.17
2018-12-20T12:46:29.371Z,89.66
2018-12-20T12:48:56.496Z,89.36
2018-12-20T12:51:22.376Z,89.43
2018-12-20T12:53:52.105Z,89.36
2018-12-20T12:56:18.015Z,87.67
2018-12-20T12:58:45.856Z,87.66
2018-12-20T13:01:11.923Z,86.79
2018-12-20T13:03:41.502Z,84.99
2018-12-20T13:06:07.348Z,85.22
2018-12-20T13:08:35.167Z,83.35
2018-12-20T13:11:01.089Z,82.25
2018-12-20T13:13:30.935Z,82.32
2018-12-20T13:15:56.933Z,79.67
2018-12-20T13:18:22.831Z,79.77
2018-12-20T13:20:48.714Z,81.13
2018-12-20T13:23:14.603Z,80.63
2018-12-20T13:25:41.816Z,78.31
2018-12-20T13:28:07.687Z,78.56
2018-12-20T13:30:36.628Z,78.39
2018-12-20T13:33:02.593Z,78.79
2018-12-20T13:35:34.526Z,77.76
2018-12-20T13:38:00.242Z,77.25
2018-12-20T13:40:26.132Z,77.49
2018-12-20T13:42:51.999Z,78.50
2018-12-20T13:45:20.905Z,79.65
2018-12-20T13:47:46.750Z,78.98
2018-12-20T13:50:15.760Z,78.87
2018-12-20T13:52:41.626Z,78.93
2018-12-20T13:55:07.498Z,79.47
2018-12-20T13:57:33.369Z,78.51
2018-12-20T14:00:02.194Z,79.63
2018-12-20T14:02:28.310Z,79.71
2018-12-20T14:04:54.206Z,80.45
2018-12-20T14:07:21.142Z,80.59
2018-12-20T14:09:47.020Z,81.95
2018-12-20T14:12:15.945Z,82.34
2018-12-20T14:14:41.808Z,82.98
2018-12-20T14:17:13.044Z,83.69
2018-12-20T14:19:38.924Z,83.49
2018-12-20T14:22:05.248Z,84.33
2018-12-20T14:24:31.103Z,84.28
2018-12-20T14:26:59.945Z,85.11
2018-12-20T14:29:25.807Z,85.00
2018-12-20T14:31:51.801Z,82.69
2018-12-20T14:34:17.674Z,82.15
2018-12-20T14:36:43.720Z,82.56
2018-12-20T14:39:13.144Z,83.18
2018-12-20T14:41:39.047Z,82.99
2018-12-20T14:44:06.744Z,83.71
2018-12-20T14:46:32.637Z,83.78
2018-12-20T14:49:01.845Z,83.42
2018-12-20T14:51:27.751Z,82.95
2018-12-20T14:53:57.082Z,83.48
2018-12-20T14:56:22.983Z,84.26
2018-12-20T14:58:50.511Z,84.76
2018-12-20T15:01:16.375Z,84.44
2018-12-20T15:03:45.251Z,84.85
2018-12-20T15:06:11.148Z,84.87
2018-12-20T15:08:37.053Z,85.37
2018-12-20T15:11:02.943Z,85.07
2018-12-20T15:13:28.783Z,84.96
2018-12-20T15:15:57.556Z,85.27
2018-12-20T15:18:23.401Z,85.30
2018-12-20T15:20:51.649Z,85.36
2018-12-20T15:23:17.506Z,85.72
2018-12-20T15:25:46.252Z,86.32
2018-12-20T15:28:13.042Z,85.84
2018-12-20T15:30:42.505Z,85.72
2018-12-20T15:33:08.410Z,86.60
2018-12-20T15:35:37.324Z,86.94
2018-12-20T15:38:03.346Z,86.76
2018-12-20T15:40:30.974Z,86.73
2018-12-20T15:42:56.910Z,86.89
2018-12-20T15:45:22.827Z,86.37
2018-12-20T15:47:48.704Z,86.51
2018-12-20T15:50:14.571Z,86.20
2018-12-20T15:52:43.681Z,86.17
2018-12-20T15:55:09.787Z,85.78
2018-12-20T15:57:37.596Z,86.23
2018-12-20T16:00:06.172Z,86.34
2018-12-20T16:02:32.071Z,85.96
2018-12-20T16:04:57.924Z,85.62
2018-12-20T16:07:26.737Z,86.47
2018-12-20T16:09:52.630Z,86.31
2018-12-20T16:12:21.635Z,86.27
2018-12-20T16:14:47.522Z,87.14
2018-12-20T16:17:16.543Z,86.18
2018-12-20T16:19:42.450Z,86.96
2018-12-20T16:22:08.378Z,86.47
2018-12-20T16:24:34.243Z,86.65
2018-12-20T16:27:00.100Z,86.49
2018-12-20T16:29:29.655Z,86.92
2018-12-20T16:31:55.662Z,86.90
2018-12-20T16:34:22.618Z,87.34
2018-12-20T16:36:48.507Z,86.69
2018-12-20T16:39:17.394Z,86.77
2018-12-20T16:41:43.301Z,87.77
2018-12-20T16:44:12.125Z,88.16
2018-12-20T16:46:38.044Z,88.08
2018-12-20T16:49:13.529Z,88.65
2018-12-20T16:51:34.273Z,88.86
2018-12-20T16:54:01.452Z,89.28
2018-12-20T16:56:27.351Z,89.94
2018-12-20T16:58:53.232Z,89.88
2018-12-20T17:01:19.126Z,89.99
2018-12-20T17:03:44.984Z,90.18
2018-12-20T17:06:14.890Z,90.31
2018-12-20T17:08:48.105Z,90.39
2018-12-20T17:11:08.690Z,90.31
2018-12-20T17:13:34.590Z,90.33
2018-12-20T17:16:04.123Z,90.33
2018-12-20T17:18:30.019Z,90.29
2018-12-20T17:20:57.787Z,90.57
2018-12-20T17:23:23.704Z,90.78
2018-12-20T17:25:52.604Z,91.09
2018-12-20T17:28:18.500Z,90.59
2018-12-20T17:30:48.412Z,91.43
2018-12-20T17:33:14.334Z,91.03
2018-12-20T17:35:40.243Z,90.50
2018-12-20T17:38:06.257Z,90.89
2018-12-20T17:40:32.121Z,90.64
2018-12-20T17:42:58.340Z,90.71
2018-12-20T17:45:24.246Z,90.79
2018-12-20T17:47:53.124Z,91.06
2018-12-20T17:50:19.008Z,91.21
2018-12-20T17:52:48.262Z,90.99
2018-12-20T17:55:14.707Z,91.72
2018-12-20T17:57:44.696Z,92.00
2018-12-20T18:00:10.975Z,92.23
2018-12-20T18:02:36.995Z,92.65
2018-12-20T18:05:07.131Z,92.47
2018-12-20T18:07:32.531Z,92.75
2018-12-20T18:09:58.402Z,92.53
2018-12-20T18:12:24.344Z,92.96
2018-12-20T18:14:50.221Z,93.26
2018-12-20T18:17:16.514Z,93.27
2018-12-20T18:19:44.321Z,93.36
2018-12-20T18:22:10.231Z,93.55
2018-12-20T18:24:39.997Z,93.00
2018-12-20T18:27:05.878Z,93.10
2018-12-20T18:29:33.891Z,93.87
2018-12-20T18:31:59.794Z,93.97
2018-12-20T18:34:29.317Z,93.39
2018-12-20T18:36:55.208Z,93.73
2018-12-20T18:39:22.947Z,93.15
2018-12-20T18:41:48.795Z,93.84
2018-12-20T18:44:17.971Z,93.47
2018-12-20T18:46:45.439Z,93.44
2018-12-20T18:49:11.394Z,93.12
2018-12-20T18:51:37.267Z,93.34
2018-12-20T18:54:03.284Z,93.27
2018-12-20T18:56:29.262Z,93.67
2018-12-20T18:58:55.134Z,93.49
2018-12-20T19:01:24.310Z,93.52
2018-12-20T19:03:50.185Z,93.48
2018-12-20T19:06:20.091Z,93.27
2018-12-20T19:08:45.938Z,93.04
2018-12-20T19:11:12.941Z,92.98
2018-12-20T19:13:38.834Z,93.60
2018-12-20T19:16:07.760Z,93.52
2018-12-20T19:18:33.677Z,93.11
2018-12-20T19:21:03.449Z,92.64
2018-12-20T19:23:29.353Z,92.27
2018-12-20T19:25:55.854Z,92.21
2018-12-20T19:28:23.174Z,92.28
2018-12-20T19:30:50.090Z,92.05
2018-12-20T19:33:16.302Z,91.57
2018-12-20T19:35:45.623Z,91.43
2018-12-20T19:38:11.505Z,92.39
2018-12-20T19:40:37.544Z,92.45
2018-12-20T19:43:03.865Z,92.10
2018-12-20T19:45:29.755Z,92.32
2018-12-20T19:47:58.671Z,92.03
2018-12-20T19:50:24.608Z,92.65
2018-12-20T19:52:53.072Z,92.48
2018-12-20T19:55:18.960Z,92.23
2018-12-20T19:57:47.340Z,92.53
2018-12-20T20:00:13.409Z,92.18
2018-12-20T20:02:39.307Z,91.67
2018-12-20T20:05:05.428Z,92.32
2018-12-20T20:07:31.351Z,91.67
2018-12-20T20:10:02.323Z,91.84
2018-12-20T20:12:28.338Z,92.01
2018-12-20T20:14:54.188Z,92.25
2018-12-20T20:17:20.272Z,91.61
2018-12-20T20:19:50.407Z,91.92
2018-12-20T20:22:16.307Z,91.98
2018-12-20T20:24:43.629Z,91.10
2018-12-20T20:27:09.586Z,91.60
2018-12-20T20:29:37.993Z,91.48
2018-12-20T20:32:03.890Z,92.06
2018-12-20T20:34:32.888Z,92.05
2018-12-20T20:36:58.767Z,92.74
2018-12-20T20:39:24.684Z,92.77
2018-12-20T20:41:50.563Z,92.57
2018-12-20T20:44:16.437Z,92.86
2018-12-20T20:46:45.132Z,93.38
2018-12-20T20:49:11.249Z,93.52
2018-12-20T20:51:40.590Z,93.61
2018-12-20T20:54:06.436Z,94.54
2018-12-20T20:56:34.328Z,94.41
2018-12-20T20:59:00.192Z,94.56
2018-12-20T21:01:28.553Z,94.60
2018-12-20T21:03:54.482Z,94.84
2018-12-20T21:08:51.919Z,94.43
2018-12-20T21:11:18.662Z,94.81
2018-12-20T21:13:44.604Z,94.37
2018-12-20T21:16:10.459Z,96.10
2018-12-20T21:18:36.427Z,95.37
2018-12-20T21:21:02.323Z,94.93
2018-12-20T21:23:31.681Z,94.44
2018-12-20T21:25:57.565Z,95.33
2018-12-20T21:28:25.398Z,95.50
2018-12-20T21:30:51.264Z,95.48
2018-12-20T21:33:21.072Z,95.21
2018-12-20T21:35:47.008Z,95.61
2018-12-20T21:38:16.027Z,95.55
2018-12-20T21:40:41.987Z,95.09
2018-12-20T21:43:09.762Z,95.62
2018-12-20T21:45:35.670Z,95.39
2018-12-20T21:48:05.441Z,95.20
2018-12-20T21:50:38.783Z,95.24
2018-12-20T21:52:59.225Z,95.62
2018-12-20T21:55:25.099Z,95.80
2018-12-20T21:57:51.693Z,94.74
2018-12-20T22:00:17.672Z,94.83
2018-12-20T22:02:43.560Z,94.59
2018-12-20T22:05:10.849Z,94.02
2018-12-20T22:07:36.766Z,94.00
2018-12-20T22:10:05.949Z,93.37
2018-12-20T22:12:31.854Z,93.46
2018-12-20T22:15:00.789Z,93.88
2018-12-20T22:17:26.764Z,94.01
2018-12-20T22:19:58.538Z,94.07
2018-12-20T22:22:22.411Z,93.74
2018-12-20T22:24:49.371Z,93.96
2018-12-20T22:27:15.277Z,94.17
2018-12-20T22:29:41.158Z,93.34
2018-12-20T22:32:07.348Z,93.54
2018-12-20T22:34:33.239Z,93.08
2018-12-20T22:37:02.504Z,93.66
2018-12-20T22:39:28.394Z,93.67
2018-12-20T22:41:56.182Z,92.55
2018-12-20T22:44:22.077Z,92.97
2018-12-20T22:46:51.871Z,92.48
2018-12-20T22:49:17.896Z,92.58
2018-12-20T22:51:45.627Z,92.78
2018-12-20T22:54:11.538Z,91.79
2018-12-20T22:56:40.528Z,92.41
2018-12-20T22:59:06.457Z,92.21
2018-12-20T23:01:34.293Z,92.68
2018-12-20T23:04:00.267Z,92.79
2018-12-20T23:06:26.152Z,92.95
2018-12-20T23:08:52.043Z,92.95
2018-12-20T23:11:17.991Z,92.58
2018-12-20T23:13:47.390Z,92.51
2018-12-20T23:16:13.313Z,93.36
2018-12-20T23:18:41.134Z,92.87
2018-12-20T23:21:07.859Z,92.71
2018-12-20T23:23:37.166Z,92.71
2018-12-20T23:26:03.178Z,92.70
2018-12-20T23:28:30.867Z,92.01
2018-12-20T23:30:56.772Z,92.20
2018-12-20T23:33:26.583Z,91.79
2018-12-20T23:35:52.442Z,91.63
2018-12-20T23:38:21.346Z,91.69
2018-12-20T23:40:47.233Z,91.85
2018-12-20T23:43:13.089Z,91.95
2018-12-20T23:45:39.009Z,91.45
2018-12-20T23:48:04.876Z,91.58
2018-12-20T23:50:31.966Z,91.36
2018-12-20T23:52:57.858Z,91.70
2018-12-20T23:55:27.594Z,91.86
2018-12-20T23:57:54.498Z,91.50
